createdAt,value
2022-08-26T00:01:30.739Z,4.88
2022-08-26T00:03:58.520Z,6.20
2022-08-26T00:06:25.789Z,7.78
2022-08-26T00:08:52.172Z,5.65
2022-08-26T00:11:26.549Z,5.38
2022-08-26T00:13:56.699Z,5.65
2022-08-26T00:16:25.016Z,5.57
2022-08-26T00:18:53.081Z,5.70
2022-08-26T00:21:19.979Z,5.53
2022-08-26T00:23:46.554Z,5.38
2022-08-26T00:26:14.274Z,5.82
2022-08-26T00:28:41.345Z,6.03
2022-08-26T00:31:10.810Z,7.93
2022-08-26T00:33:38.470Z,5.00
2022-08-26T00:36:05.855Z,5.70
2022-08-26T00:38:32.614Z,7.60
2022-08-26T00:40:59.260Z,5.28
2022-08-26T00:43:26.930Z,7.38
2022-08-26T00:46:14.645Z,6.03
2022-08-26T00:48:46.898Z,7.85
2022-08-26T00:51:19.793Z,7.93
2022-08-26T00:53:52.482Z,7.50
2022-08-26T00:56:26.985Z,6.55
2022-08-26T00:58:56.754Z,8.82
2022-08-26T01:01:23.384Z,8.50
2022-08-26T01:03:50.025Z,9.23
2022-08-26T01:06:16.550Z,14.35
2022-08-26T01:08:43.753Z,11.35
2022-08-26T01:11:11.077Z,17.30
2022-08-26T01:13:38.845Z,17.88
2022-08-26T01:16:10.432Z,18.15
2022-08-26T01:18:36.979Z,16.35
2022-08-26T01:21:31.547Z,13.57
2022-08-26T01:23:59.518Z,16.67
2022-08-26T01:26:41.544Z,18.08
2022-08-26T01:29:17.091Z,17.77
2022-08-26T01:31:47.307Z,21.27
2022-08-26T01:34:22.124Z,19.45
2022-08-26T01:36:51.650Z,20.67
2022-08-26T01:39:18.553Z,19.90
2022-08-26T01:41:46.326Z,22.98
2022-08-26T01:44:21.753Z,24.42
2022-08-26T01:46:50.741Z,27.73
2022-08-26T01:49:17.941Z,26.50
2022-08-26T01:51:46.578Z,28.38
2022-08-26T01:54:14.032Z,30.90
2022-08-26T01:56:41.057Z,36.88
2022-08-26T01:59:12.400Z,35.70
2022-08-26T02:01:40.717Z,33.83
2022-08-26T02:04:36.085Z,36.65
2022-08-26T02:07:06.349Z,36.42
2022-08-26T02:09:41.042Z,41.65
2022-08-26T02:12:10.340Z,46.78
2022-08-26T02:14:43.662Z,44.42
2022-08-26T02:17:11.815Z,39.78
2022-08-26T02:19:41.821Z,40.50
2022-08-26T02:22:16.136Z,43.15
2022-08-26T02:24:57.908Z,45.40
2022-08-26T02:27:33.650Z,47.28
2022-08-26T02:30:14.740Z,47.75
2022-08-26T02:32:44.453Z,46.80
2022-08-26T02:35:13.514Z,48.70
2022-08-26T02:37:44.817Z,41.38
2022-08-26T02:40:13.641Z,46.13
2022-08-26T02:42:41.206Z,50.50
2022-08-26T02:45:10.581Z,42.97
2022-08-26T02:47:37.450Z,46.92
2022-08-26T02:50:05.249Z,50.80
2022-08-26T02:52:31.803Z,45.47
2022-08-26T02:54:58.865Z,43.03
2022-08-26T02:57:25.997Z,41.58
2022-08-26T02:59:52.667Z,42.28
2022-08-26T03:02:19.309Z,42.72
2022-08-26T03:04:57.896Z,46.75
2022-08-26T03:07:28.392Z,46.97
2022-08-26T03:09:54.769Z,44.58
2022-08-26T03:12:21.165Z,45.05
2022-08-26T03:14:48.191Z,44.15
2022-08-26T03:17:14.625Z,38.92
2022-08-26T03:19:40.990Z,38.33
2022-08-26T03:22:08.027Z,40.17
2022-08-26T03:24:34.900Z,40.78
2022-08-26T03:27:02.009Z,39.88
2022-08-26T03:29:52.934Z,40.92
2022-08-26T03:32:20.816Z,37.30
2022-08-26T03:34:47.768Z,38.13
2022-08-26T03:37:14.680Z,37.60
2022-08-26T03:39:41.635Z,36.03
2022-08-26T03:42:08.145Z,36.10
2022-08-26T03:44:34.999Z,34.35
2022-08-26T03:47:01.544Z,33.53
2022-08-26T03:49:29.014Z,34.20
2022-08-26T03:51:55.623Z,35.70
2022-08-26T03:54:22.101Z,33.83
2022-08-26T03:56:48.643Z,37.15
2022-08-26T03:59:15.017Z,33.42
2022-08-26T04:01:41.920Z,31.38
2022-08-26T04:04:08.718Z,33.40
2022-08-26T04:06:38.511Z,32.15
2022-08-26T04:09:08.669Z,34.75
2022-08-26T04:11:38.390Z,35.72
2022-08-26T04:14:09.053Z,36.00
2022-08-26T04:16:35.860Z,34.45
2022-08-26T04:19:02.444Z,36.03
2022-08-26T04:21:28.935Z,34.78
2022-08-26T04:23:56.075Z,36.75
2022-08-26T04:26:25.562Z,38.05
2022-08-26T04:28:54.556Z,45.83
2022-08-26T04:31:21.069Z,40.65
2022-08-26T04:33:49.911Z,40.58
2022-08-26T04:36:17.416Z,42.42
2022-08-26T04:38:46.163Z,39.78
2022-08-26T04:41:15.552Z,39.70
2022-08-26T04:43:44.491Z,47.83
2022-08-26T04:46:12.811Z,45.97
2022-08-26T04:48:40.876Z,44.28
2022-08-26T04:51:07.706Z,45.10
2022-08-26T04:53:34.756Z,39.72
2022-08-26T04:56:01.433Z,37.03
2022-08-26T04:58:30.419Z,41.88
2022-08-26T05:00:57.264Z,40.17
2022-08-26T05:03:25.468Z,40.63
2022-08-26T05:05:53.201Z,37.47
2022-08-26T05:08:22.462Z,38.58
2022-08-26T05:10:52.538Z,37.15
2022-08-26T05:13:21.332Z,36.25
2022-08-26T05:15:48.831Z,35.15
2022-08-26T05:18:17.511Z,40.67
2022-08-26T05:20:50.049Z,34.33
2022-08-26T05:23:17.545Z,34.08
2022-08-26T05:25:46.500Z,34.55
2022-08-26T05:28:15.196Z,31.00
2022-08-26T05:30:42.598Z,35.53
2022-08-26T05:33:11.630Z,31.42
2022-08-26T05:35:39.114Z,30.65
2022-08-26T05:38:12.607Z,29.90
2022-08-26T05:40:43.174Z,29.67
2022-08-26T05:43:13.430Z,28.15
2022-08-26T05:45:46.151Z,26.02
2022-08-26T05:48:14.237Z,30.40
2022-08-26T05:50:42.972Z,26.42
2022-08-26T05:53:11.734Z,24.17
2022-08-26T05:55:52.528Z,22.77
2022-08-26T05:58:21.428Z,22.35
2022-08-26T06:01:14.486Z,24.63
2022-08-26T06:03:44.684Z,21.10
2022-08-26T06:06:27.313Z,22.73
2022-08-26T06:08:55.551Z,22.45
2022-08-26T06:11:26.612Z,19.33
2022-08-26T06:13:55.812Z,19.60
2022-08-26T06:16:24.628Z,20.58
2022-08-26T06:18:53.176Z,22.70
2022-08-26T06:21:28.963Z,21.50
2022-08-26T06:24:16.896Z,19.88
2022-08-26T06:26:50.395Z,20.95
2022-08-26T06:29:24.305Z,22.33
2022-08-26T06:31:52.533Z,20.48
2022-08-26T06:34:19.019Z,18.20
2022-08-26T06:36:47.145Z,24.40
2022-08-26T06:39:15.455Z,18.90
2022-08-26T06:41:43.598Z,20.83
2022-08-26T06:44:10.809Z,19.45
2022-08-26T06:46:38.099Z,23.17
2022-08-26T06:49:05.460Z,21.60
2022-08-26T06:51:35.013Z,20.67
2022-08-26T06:54:03.399Z,20.67
2022-08-26T06:56:35.754Z,20.23
2022-08-26T06:59:03.734Z,16.17
2022-08-26T07:01:37.378Z,16.30
2022-08-26T07:04:10.425Z,17.10
2022-08-26T07:06:39.171Z,16.27
2022-08-26T07:09:09.840Z,25.65
2022-08-26T07:11:37.918Z,23.73
2022-08-26T07:14:04.917Z,23.63
2022-08-26T07:16:31.793Z,20.17
2022-08-26T07:18:59.854Z,19.02
2022-08-26T07:21:29.869Z,21.85
2022-08-26T07:24:00.543Z,17.55
2022-08-26T07:26:30.126Z,15.40
2022-08-26T07:28:58.613Z,23.60
2022-08-26T07:31:28.181Z,17.95
2022-08-26T07:33:56.869Z,20.67
2022-08-26T07:36:24.284Z,21.48
2022-08-26T07:38:52.050Z,21.95
2022-08-26T07:41:22.774Z,16.50
2022-08-26T07:43:50.465Z,18.20
2022-08-26T07:46:20.833Z,22.20
2022-08-26T07:48:56.819Z,17.80
2022-08-26T07:51:23.455Z,19.65
2022-08-26T07:53:52.802Z,16.35
2022-08-26T07:56:20.277Z,17.60
2022-08-26T07:58:51.272Z,17.15
2022-08-26T08:01:23.863Z,17.70
2022-08-26T08:03:51.914Z,22.60
2022-08-26T08:06:20.759Z,16.08
2022-08-26T08:08:48.435Z,15.93
2022-08-26T08:11:21.147Z,17.50
2022-08-26T08:13:47.910Z,21.75
2022-08-26T08:16:15.542Z,13.27
2022-08-26T08:18:42.277Z,18.02
2022-08-26T08:21:21.162Z,19.80
2022-08-26T08:23:54.246Z,18.20
2022-08-26T08:26:21.573Z,16.70
2022-08-26T08:28:48.231Z,16.15
2022-08-26T08:34:13.715Z,16.75
2022-08-26T08:36:40.233Z,20.08
2022-08-26T08:39:07.957Z,14.85
2022-08-26T08:42:04.173Z,15.32
2022-08-26T08:44:31.252Z,14.25
2022-08-26T08:47:19.009Z,13.18
2022-08-26T08:49:47.265Z,13.85
2022-08-26T08:52:35.025Z,13.70
2022-08-26T08:55:03.033Z,14.35
2022-08-26T08:57:35.447Z,14.05
2022-08-26T09:00:17.649Z,14.48
2022-08-26T09:03:00.960Z,16.23
2022-08-26T09:05:32.005Z,17.65
2022-08-26T09:08:20.032Z,13.05
2022-08-26T09:10:54.450Z,13.63
2022-08-26T09:13:24.974Z,17.08
2022-08-26T09:15:55.327Z,16.58
2022-08-26T09:18:40.252Z,17.77
2022-08-26T09:21:16.166Z,18.77
2022-08-26T09:23:49.159Z,20.63
2022-08-26T09:26:36.240Z,15.15
2022-08-26T09:29:13.755Z,19.98
2022-08-26T09:31:41.305Z,17.73
2022-08-26T09:34:22.226Z,13.90
2022-08-26T09:36:51.742Z,15.88
2022-08-26T09:39:27.392Z,18.45
2022-08-26T09:42:08.162Z,20.17
2022-08-26T09:44:56.875Z,15.93
2022-08-26T09:47:30.118Z,18.15
2022-08-26T09:50:18.376Z,13.23
2022-08-26T09:52:45.063Z,14.68
2022-08-26T09:55:20.594Z,15.93
2022-08-26T09:57:54.056Z,14.85
2022-08-26T10:00:38.738Z,17.77
2022-08-26T10:03:23.893Z,18.52
2022-08-26T10:06:02.885Z,14.48
2022-08-26T10:08:31.446Z,13.30
2022-08-26T10:11:01.895Z,14.68
2022-08-26T10:13:31.406Z,11.07
2022-08-26T10:16:22.130Z,14.25
2022-08-26T10:19:08.213Z,13.32
2022-08-26T10:21:38.934Z,16.25
2022-08-26T10:24:07.401Z,10.02
2022-08-26T10:26:56.338Z,9.13
2022-08-26T10:29:46.914Z,12.77
2022-08-26T10:32:23.812Z,11.25
2022-08-26T10:34:52.003Z,18.15
2022-08-26T10:37:23.405Z,13.07
2022-08-26T10:40:00.540Z,17.60
2022-08-26T10:42:49.165Z,15.45
2022-08-26T10:45:25.505Z,13.98
2022-08-26T10:48:06.859Z,11.70
2022-08-26T10:50:38.064Z,11.00
2022-08-26T10:53:11.689Z,13.40
2022-08-26T10:56:02.755Z,19.88
2022-08-26T10:59:06.219Z,14.07
2022-08-26T11:01:50.987Z,17.55
2022-08-26T11:04:22.381Z,16.05
2022-08-26T11:06:49.346Z,10.52
2022-08-26T11:09:47.426Z,16.75
2022-08-26T11:12:42.112Z,14.30
2022-08-26T11:15:11.587Z,18.17
2022-08-26T11:17:45.978Z,16.77
2022-08-26T11:20:27.920Z,18.08
2022-08-26T11:22:56.224Z,16.02
2022-08-26T11:25:30.827Z,15.48
2022-08-26T11:28:01.139Z,15.80
2022-08-26T11:30:42.639Z,17.85
2022-08-26T11:33:10.503Z,13.85
2022-08-26T11:35:37.372Z,15.23
2022-08-26T11:38:41.096Z,16.45
2022-08-26T11:41:17.230Z,22.33
2022-08-26T11:43:45.359Z,21.92
2022-08-26T11:46:12.913Z,20.13
2022-08-26T11:48:42.390Z,21.13
2022-08-26T11:51:11.736Z,21.45
2022-08-26T11:53:45.029Z,20.05
2022-08-26T11:56:31.612Z,21.50
2022-08-26T11:59:00.855Z,21.58
2022-08-26T12:01:41.686Z,20.50
2022-08-26T12:04:13.879Z,18.23
2022-08-26T12:06:50.855Z,24.60
2022-08-26T12:09:24.758Z,16.52
2022-08-26T12:11:52.774Z,18.58
2022-08-26T12:14:27.727Z,17.40
2022-08-26T12:16:54.647Z,16.45
2022-08-26T12:19:33.424Z,17.10
2022-08-26T12:22:23.364Z,14.93
2022-08-26T12:24:53.867Z,18.73
2022-08-26T12:27:27.127Z,14.88
2022-08-26T12:30:09.365Z,13.65
2022-08-26T12:32:58.085Z,17.73
2022-08-26T12:35:26.772Z,15.80
2022-08-26T12:37:54.689Z,11.00
2022-08-26T12:40:30.855Z,12.23
2022-08-26T12:43:00.482Z,13.05
2022-08-26T12:45:41.483Z,11.98
2022-08-26T12:48:11.891Z,12.88
2022-08-26T12:50:45.819Z,12.07
2022-08-26T12:53:12.214Z,11.07
2022-08-26T12:55:38.716Z,9.15
2022-08-26T12:58:27.368Z,15.70
2022-08-26T13:01:09.334Z,8.52
2022-08-26T13:03:38.760Z,8.35
2022-08-26T13:06:22.530Z,12.07
2022-08-26T13:08:56.833Z,11.80
2022-08-26T13:11:31.785Z,11.55
2022-08-26T13:14:06.876Z,10.93
2022-08-26T13:16:34.335Z,12.75
2022-08-26T13:19:05.724Z,12.77
2022-08-26T13:21:50.439Z,9.27
2022-08-26T13:24:30.556Z,8.30
2022-08-26T13:26:57.275Z,7.80
2022-08-26T13:29:23.924Z,13.05
2022-08-26T13:31:51.618Z,6.60
2022-08-26T13:34:20.424Z,7.50
2022-08-26T13:36:48.447Z,8.05
2022-08-26T13:39:15.058Z,6.22
2022-08-26T13:41:43.158Z,6.40
2022-08-26T13:44:10.491Z,8.48
2022-08-26T13:46:37.114Z,10.48
2022-08-26T13:49:04.334Z,9.90
2022-08-26T13:51:31.579Z,6.68
2022-08-26T13:53:58.671Z,6.43
2022-08-26T13:56:27.491Z,7.93
2022-08-26T13:58:53.933Z,6.13
2022-08-26T14:01:20.555Z,10.82
2022-08-26T14:03:47.062Z,8.80
2022-08-26T14:06:13.762Z,6.07
2022-08-26T14:08:40.814Z,7.85
2022-08-26T14:11:07.868Z,6.43
2022-08-26T14:13:34.544Z,5.30
2022-08-26T14:16:02.771Z,5.22
2022-08-26T14:18:33.345Z,3.45
2022-08-26T14:21:00.671Z,6.75
2022-08-26T14:23:27.385Z,6.95
2022-08-26T14:25:54.180Z,4.43
2022-08-26T14:28:20.685Z,7.88
2022-08-26T14:30:57.928Z,4.63
2022-08-26T14:33:27.065Z,7.25
2022-08-26T14:36:13.417Z,10.63
2022-08-26T14:38:39.999Z,14.00
2022-08-26T14:41:06.455Z,6.38
2022-08-26T14:43:32.991Z,7.45
2022-08-26T14:45:59.530Z,8.15
2022-08-26T14:48:25.960Z,10.13
2022-08-26T14:50:52.487Z,12.77
2022-08-26T14:53:37.433Z,7.00
2022-08-26T14:56:04.077Z,10.80
2022-08-26T14:58:35.003Z,8.63
2022-08-26T15:01:04.432Z,16.55
2022-08-26T15:03:31.091Z,8.55
2022-08-26T15:05:57.954Z,11.45
2022-08-26T15:08:24.582Z,7.50
2022-08-26T15:10:51.123Z,7.07
2022-08-26T15:13:17.531Z,9.63
2022-08-26T15:15:44.449Z,12.32
2022-08-26T15:18:11.132Z,6.60
2022-08-26T15:20:38.122Z,12.18
2022-08-26T15:23:06.495Z,8.80
2022-08-26T15:25:32.965Z,7.68
2022-08-26T15:27:59.710Z,6.35
2022-08-26T15:30:26.273Z,4.82
2022-08-26T15:32:52.697Z,9.57
2022-08-26T15:35:19.185Z,6.60
2022-08-26T15:37:45.828Z,8.23
2022-08-26T15:40:12.391Z,8.10
2022-08-26T15:42:39.313Z,15.57
2022-08-26T15:45:06.125Z,8.13
2022-08-26T15:47:35.485Z,6.85
2022-08-26T15:50:20.271Z,5.25
2022-08-26T15:52:47.899Z,12.38
2022-08-26T15:55:14.327Z,10.52
2022-08-26T15:57:40.845Z,7.05
2022-08-26T16:00:09.793Z,4.55
2022-08-26T16:02:36.275Z,9.13
2022-08-26T16:05:02.933Z,5.85
2022-08-26T16:07:30.867Z,8.32
2022-08-26T16:09:57.535Z,7.75
2022-08-26T16:12:24.527Z,6.90
2022-08-26T16:14:52.766Z,6.50
2022-08-26T16:17:20.089Z,8.25
2022-08-26T16:19:46.784Z,9.50
2022-08-26T16:22:13.347Z,5.75
2022-08-26T16:24:39.741Z,5.95
2022-08-26T16:27:06.138Z,5.95
2022-08-26T16:29:32.786Z,8.90
2022-08-26T16:31:59.303Z,5.20
2022-08-26T16:34:25.848Z,5.55
2022-08-26T16:36:52.995Z,5.88
2022-08-26T16:39:19.463Z,8.20
2022-08-26T16:41:45.981Z,5.50
2022-08-26T16:44:12.506Z,6.60
2022-08-26T16:46:39.632Z,7.47
2022-08-26T16:49:06.302Z,6.78
2022-08-26T16:51:37.856Z,5.95
2022-08-26T16:54:06.966Z,7.80
2022-08-26T16:56:34.501Z,10.05
2022-08-26T16:59:02.408Z,5.30
2022-08-26T17:01:29.293Z,4.68
2022-08-26T17:03:55.956Z,6.03
2022-08-26T17:06:22.496Z,6.05
2022-08-26T17:08:49.496Z,7.45
2022-08-26T17:11:16.125Z,5.90
2022-08-26T17:13:42.662Z,6.60
2022-08-26T17:16:14.421Z,5.20
2022-08-26T17:18:41.134Z,5.97
2022-08-26T17:21:11.253Z,5.55
2022-08-26T17:23:39.113Z,5.13
2022-08-26T17:26:05.732Z,5.82
2022-08-26T17:28:32.463Z,5.88
2022-08-26T17:30:59.750Z,6.75
2022-08-26T17:33:26.260Z,7.80
2022-08-26T17:35:53.227Z,9.93
2022-08-26T17:38:21.086Z,8.60
2022-08-26T17:40:47.978Z,4.65
2022-08-26T17:43:14.361Z,16.17
2022-08-26T17:45:41.192Z,6.70
2022-08-26T17:48:08.420Z,5.22
2022-08-26T17:50:35.668Z,4.93
2022-08-26T17:53:02.213Z,8.90
2022-08-26T17:55:28.991Z,14.00
2022-08-26T17:57:55.640Z,10.48
2022-08-26T18:00:26.393Z,9.05
2022-08-26T18:02:54.578Z,6.10
2022-08-26T18:05:21.705Z,7.25
2022-08-26T18:07:48.346Z,9.75
2022-08-26T18:10:17.355Z,5.63
2022-08-26T18:12:43.880Z,7.32
2022-08-26T18:15:11.695Z,6.97
2022-08-26T18:17:41.672Z,9.57
2022-08-26T18:20:15.534Z,6.07
2022-08-26T18:22:43.593Z,8.55
2022-08-26T18:25:11.989Z,5.25
2022-08-26T18:27:39.019Z,6.45
2022-08-26T18:30:13.396Z,7.47
2022-08-26T18:32:42.709Z,5.90
2022-08-26T18:35:09.909Z,8.93
2022-08-26T18:37:37.179Z,7.25
2022-08-26T18:40:09.719Z,6.35
2022-08-26T18:42:36.833Z,7.40
2022-08-26T18:45:05.662Z,5.18
2022-08-26T18:47:32.744Z,7.50
2022-08-26T18:50:03.456Z,6.57
2022-08-26T18:52:31.070Z,4.63
2022-08-26T18:54:57.458Z,6.20
2022-08-26T18:57:23.845Z,6.22
2022-08-26T18:59:50.267Z,6.13
2022-08-26T19:02:16.877Z,6.13
2022-08-26T19:04:43.515Z,7.82
2022-08-26T19:07:10.218Z,4.10
2022-08-26T19:09:36.841Z,6.28
2022-08-26T19:12:05.137Z,4.38
2022-08-26T19:14:32.445Z,7.93
2022-08-26T19:16:59.341Z,5.57
2022-08-26T19:19:25.922Z,6.72
2022-08-26T19:21:53.334Z,5.68
2022-08-26T19:24:21.415Z,6.72
2022-08-26T19:26:57.528Z,6.13
2022-08-26T19:29:27.396Z,7.47
2022-08-26T19:31:54.331Z,11.27
2022-08-26T19:34:21.070Z,7.55
2022-08-26T19:36:48.509Z,5.57
2022-08-26T19:39:15.513Z,8.68
2022-08-26T19:41:41.957Z,6.07
2022-08-26T19:44:11.490Z,3.63
2022-08-26T19:49:09.633Z,3.90
2022-08-26T19:51:36.753Z,7.60
2022-08-26T19:54:03.666Z,7.15
2022-08-26T19:56:30.407Z,5.55
2022-08-26T19:58:58.049Z,4.72
2022-08-26T20:01:25.470Z,11.00
2022-08-26T20:03:52.168Z,8.27
2022-08-26T20:06:19.991Z,10.20
2022-08-26T20:08:46.548Z,5.65
2022-08-26T20:11:15.864Z,7.30
2022-08-26T20:13:43.937Z,4.50
2022-08-26T20:16:12.037Z,8.38
2022-08-26T20:18:58.841Z,6.13
2022-08-26T20:21:29.190Z,5.20
2022-08-26T20:24:06.086Z,7.55
2022-08-26T20:26:34.850Z,6.43
2022-08-26T20:29:01.346Z,4.20
2022-08-26T20:31:28.321Z,5.40
2022-08-26T20:33:55.253Z,6.13
2022-08-26T20:36:24.545Z,7.30
2022-08-26T20:38:51.089Z,15.13
2022-08-26T20:41:18.226Z,10.35
2022-08-26T20:43:46.235Z,8.73
2022-08-26T20:46:18.761Z,5.53
2022-08-26T20:48:48.556Z,8.40
2022-08-26T20:51:16.529Z,6.95
2022-08-26T20:53:44.162Z,4.47
2022-08-26T20:56:12.645Z,6.03
2022-08-26T20:58:39.810Z,7.97
2022-08-26T21:01:08.255Z,5.55
2022-08-26T21:03:36.061Z,6.55
2022-08-26T21:06:03.478Z,6.43
2022-08-26T21:08:30.056Z,6.15
2022-08-26T21:10:59.587Z,8.38
2022-08-26T21:13:26.017Z,5.43
2022-08-26T21:15:56.309Z,6.93
2022-08-26T21:18:22.854Z,11.23
2022-08-26T21:20:49.260Z,13.45
2022-08-26T21:23:15.838Z,13.68
2022-08-26T21:25:42.344Z,12.57
2022-08-26T21:28:08.937Z,13.32
2022-08-26T21:30:40.129Z,11.75
2022-08-26T21:33:07.405Z,13.93
2022-08-26T21:35:34.082Z,16.23
2022-08-26T21:38:00.750Z,13.13
2022-08-26T21:40:27.776Z,13.68
2022-08-26T21:42:54.415Z,13.95
2022-08-26T21:45:20.825Z,12.48
2022-08-26T21:47:47.378Z,7.55
2022-08-26T21:50:13.989Z,8.95
2022-08-26T21:52:40.478Z,8.68
2022-08-26T21:55:08.944Z,4.38
2022-08-26T21:57:36.433Z,6.22
2022-08-26T22:00:05.307Z,7.43
2022-08-26T22:02:32.693Z,6.03
2022-08-26T22:04:59.233Z,7.30
2022-08-26T22:07:25.661Z,3.65
2022-08-26T22:09:52.221Z,10.27
2022-08-26T22:12:18.965Z,8.93
2022-08-26T22:14:45.684Z,5.13
2022-08-26T22:17:12.433Z,4.45
2022-08-26T22:19:45.816Z,10.80
2022-08-26T22:22:13.102Z,7.10
2022-08-26T22:24:39.915Z,5.75
2022-08-26T22:27:06.375Z,7.50
2022-08-26T22:29:33.319Z,7.35
2022-08-26T22:32:00.898Z,6.00
2022-08-26T22:34:28.211Z,7.97
2022-08-26T22:36:54.738Z,5.85
2022-08-26T22:39:24.329Z,8.73
2022-08-26T22:41:53.528Z,7.83
2022-08-26T22:44:22.048Z,5.50
2022-08-26T22:46:50.289Z,4.97
2022-08-26T22:49:17.486Z,9.75
2022-08-26T22:51:45.486Z,7.00
2022-08-26T22:54:12.672Z,16.15
2022-08-26T22:56:40.004Z,7.35
2022-08-26T22:59:07.963Z,6.43
2022-08-26T23:01:37.705Z,6.83
2022-08-26T23:04:06.219Z,7.07
2022-08-26T23:06:35.881Z,6.13
2022-08-26T23:09:02.386Z,9.10
2022-08-26T23:11:28.767Z,6.37
2022-08-26T23:13:55.362Z,8.17
2022-08-26T23:16:21.926Z,7.28
2022-08-26T23:18:48.394Z,7.35
2022-08-26T23:21:15.263Z,7.90
2022-08-26T23:23:41.692Z,9.83
2022-08-26T23:26:08.235Z,8.60
2022-08-26T23:28:36.796Z,9.00
2022-08-26T23:31:03.398Z,7.27
2022-08-26T23:33:50.005Z,8.40
2022-08-26T23:36:18.013Z,7.33
2022-08-26T23:38:52.431Z,11.50
2022-08-26T23:41:21.666Z,10.30
2022-08-26T23:43:48.098Z,9.90
2022-08-26T23:46:15.164Z,6.97
2022-08-26T23:48:41.611Z,5.13
2022-08-26T23:51:26.409Z,5.03
2022-08-26T23:53:53.133Z,8.48
2022-08-26T23:56:19.820Z,4.20
2022-08-26T23:58:47.081Z,7.38
